Bogotá, Colombia

10:29 PM COT en Octubre 24, 2014 (GMT -0500)
Campin | Change Station
CLOSE
Current Station
Estación meteorológica personal
Location: Bogota, DC
Altura: 8369 ft
Estaciones meteorológicas cercanas

Alt 8369 ft 4.65 °N, 74.08 °W | Updated 4 seconds ago

Haze
Bruma
54.9 ° F
Sensación térmica 54.9 ° F
N
0.0
Viento Variable Viento desde Norte
Gusts 0.0 mph

Hoy
Alta -- | Baja -- ° F
--% Posibilidad de precipitaciones
Ayer
Alta -- | Baja -- ° F
Precip. -- pul
5:41 AM 5:40 PM
Luna nueva, 2% visible
Presión 30.34 pul
Visibilidad 3.7 Millas
Nubes Nubes dispersas 2000 ft
Nubes dispersas 20000 ft
Punto de rocío 53 ° F
Humedad 92%
Precipitaciones 0.43 pul
Espesor de la nieve No disponible.
UV 0 de una escala de 12
Polen No disponible.
Calidad del aire No disponible.
Flu Activity No disponible.
METAR SKBO 250300Z VRB02KT 6000 HZ SCT020 SCT200 12/11 A3034 RMK LTNG /NW

More Conditions Fewer Conditions

Presión 30.34 pul
Visibilidad 3.7 Millas
Nubes Nubes dispersas 2000 ft
Nubes dispersas 20000 ft
Punto de rocío 53 ° F
Humedad 92%
Precipitaciones 0.43 pul
Espesor de la nieve No disponible.
UV 0 de una escala de 12
Polen No disponible.
Calidad del aire No disponible.
Flu Activity No disponible.
METAR SKBO 250300Z VRB02KT 6000 HZ SCT020 SCT200 12/11 A3034 RMK LTNG /NW

More Conditions Fewer Conditions

10-Day Weather Forecast

Almanac

Astronomía

Oct. 24, 2014 Salida Puesta
Hora real 5:41 AM COT 5:40 PM COT
Crepúsculo civil 5:20 AM COT 6:01 PM COT
Crepúsculo náutico 4:55 AM COT 6:25 PM COT
Crepúsculo astronómico 4:30 AM COT 6:50 PM COT
Luna 6:12 AM COT (10/24) 6:27 PM COT (10/24)
Horas de luz 12h 41m
Horas de luz
11h 58m
Tomorrow will be 0m 13s shorter.
Luna nueva, 2% of the Moon is Illuminated
Hoy
Luna nueva
Oct 30
Cuarto creciente
Nov 6
Luna llena
Nov 14
Cuarto menguante
Nov 22
Nueva

Extremos de hoy

Máximos del país Bajas del país

Community

WunderPhotos

Upload Photos

1,764,769 ¡fotos cargadas!

Nearby

Calidad del aire

Not available.

Grosos de nieve

Not available.

Actividad de terremotos

Ciudad Distance Mag. Tiempo y dato
No hay informes recientes de la actividad sísmica.
Magnitud mínima muestra es 2,5.

Temperaturas de aguas costeras

Lugar Temperatura
Sin partes meteorológicos de las estaciones

Estaciones meteorológicas cercanas